ěÝzenÝ letovÚho provozu ╚eskÚ republiky
OPMET data - Ceska Republika (LK) Aktualizace: 25.05.2024 08:41:04  UTC
SIGMET / AIRMET - NIL
Warning / Vystraha
LKMT AD WRNG 1 VALID 250838/250945 TS OBS INTSF=
LKTB AD WRNG 1 VALID 250748/250853 TS OBS NC=
LKTB AD WRNG 2 VALID 250837/250853 CNL AD WRNG 1 250748/250853=
AIREP - NIL
REG QNH
REGIONAL QNH FORECAST ISSUED 2024-05-25 07:43
AREA VALID FM/TL QNH/HPA/
LKAA 250800/250900 1016
 
METAR / SPECI
SPECI LKBC 250838Z AUTO 19003KT 120V240 //// // BKN010 BKN013 15/12 Q1018=
METAR LKCR 250830Z AUTO 14008KT 110V180 9999 BKN028 BKN100 20/14 Q1018=
METAR LKCS 250830Z AUTO 36004KT 300V050 9999 FEW015/// 17/12 Q1018=
METAR LKCV 250830Z 15008KT 9999 BKN024 BKN035 19/13 Q1018 NOSIG RMK WHT WHT=
METAR LKKB 250830Z 05004KT 340V100 9999 BKN022 19/14 Q1018 NOSIG RMK WHT WHT=
METAR LKKU 250800Z 13006KT CAVOK 18/13 Q1019=
METAR LKKV 250830Z 31006KT 290V360 9999 SCT016 15/12 Q1019=
METAR LKLN 250830Z AUTO VRB03KT 9999 FEW012 17/12 Q1018=
SPECI LKMT 250838Z VRB02KT 9999 TS VCSH FEW027CB 21/15 Q1019=
METAR LKNA 250830Z 16007KT 9999 BKN007 OVC014 15/14 Q1019 RMK BLACK=
METAR LKPD 250830Z 11005KT 060V160 9999 SCT023 BKN090 19/14 Q1018 NOSIG RMK BLU BLU=
METAR LKPJ 250830Z AUTO 11005KT 090V160 9999 BKN018/// BKN027/// 19/15 Q1019 RETS=
SPECI LKPR 250840Z 34004KT 290V030 0900 R24/0900U R30/1800U FG OVC002 14/14 Q1018=
METAR LKTB 250830Z 18004KT 130V210 9999 FEW018CB SCT027 19/15 Q1019 RETS NOSIG=
METAR LKTH 250830Z AUTO VRB06KT 9999 BKN019 18/12 Q1019=
METAR LKVO NIL
TAF
TAF LKBC NIL
TAF LKCR NIL
TAF LKCS 250800Z 2509/2518 VRB02KT 9999 SCT020      TEMPO 2509/2518 7000 SHRA SCT020TCU BKN025      PROB30 TEMPO 2510/2518 3000 TSRA BKN020CB      BECMG 2512/2514 35006KT=
TAF LKCV 250500Z 2506/2606 VRB02KT CAVOK      TEMPO 2509/2521 15008KT 7000 SHRA BKN025TCU      PROB40 TEMPO 2510/2518 15015KT 5000 TSRA BKN015CB=
TAF LKKB 250500Z 2506/2606 VRB02KT CAVOK      BECMG 2507/2509 06006KT 9999 SCT025      TEMPO 2509/2518 6000 SHRA BKN018TCU      PROB30 TEMPO 2510/2518 12016KT 2000 TSRA BKN015CB BKN030      BECMG 2515/2517 VRB02KT CAVOK=
TAF LKKU NIL
TAF LKKV 250500Z 2506/2606 VRB02KT 9999 SCT025      PROB30 TEMPO 2506/2507 0500 FG BKN003      TEMPO 2510/2519 6000 SHRA BKN017CB      PROB40 TEMPO 2511/2518 3000 TSRA BKN012CB      BECMG 2519/2521 9999 SCT035      TEMPO 2523/2606 5000 BR SCT003=
TAF LKLN NIL
TAF LKMT 250500Z 2506/2606 VRB02KT 6000 NSC      BECMG 2507/2509 24006KT 9999 SCT030      TEMPO 2510/2518 30015KT 6000 SHRA SCT025CB      PROB40 TEMPO 2513/2516 3000 TSRA BKN017CB      BECMG 2601/2603 1200 MIFG BR SCT003      TEMPO 2603/2606 0300 FG VV002=
TAF LKNA 250500Z 2506/2606 11006KT 5000 BR BKN003      BECMG 2506/2508 9999 BKN015      BECMG 2508/2510 SCT025      TEMPO 2508/2521 14012KT 5000 SHRA BKN020TCU      PROB40 TEMPO 2511/2519 14018KT 3000 TSRA BKN012CB BKN025      BECMG 2600/2602 2000 BR BKN005      PROB30 TEMPO 2601/2606 0800 FG OVC002=
TAF LKPD 250500Z 2506/2606 10005KT CAVOK      TEMPO 2508/2521 15008KT 7000 SHRA SCT030TCU      PROB40 TEMPO 2510/2518 16010G20KT 4000 TSRA BKN020CB=
TAF LKPJ NIL
TAF LKPR 250800Z 2509/2615 02004KT 9999 BKN025      TEMPO 2509/2518 6000 SHRA SCT017CB      PROB30 TEMPO 2510/2518 3000 TSRA BKN014CB      BECMG 2520/2522 18004KT 3000 BR SCT005      BECMG 2605/2607 CAVOK=
TAF LKTB 250500Z 2506/2606 06006KT CAVOK      BECMG 2508/2510 9999 SCT035      TEMPO 2510/2522 20016KT 6000 SHRA SCT027CB      PROB40 TEMPO 2510/2521 3000 TSRA BKN020CB      BECMG 2522/2600 10006KT CAVOK      PROB30 TEMPO 2602/2604 4000 TSRA BKN020CB      PROB30 TEMPO 2604/2606 3000 BR SCT003=
TAF LKTH NIL
TAF LKVO NIL